Aegean Viii — SXKO — position and weather

sailwx.info

Track history (hours):
 
Tides and Currents Weather Stations Pressure Air Temp Water Temp Dewpoint Dewpoint Depression Visibility Wind Speed Wind Dir Waves Ship Positions

Aegean Viii

Last reported at 2014-Aug-26 20:32 UTC. Time now 2014-Aug-27 21:19 UTC.
Position N 37°56' E 023°17'.

Length 12 m; draft 5.2 m.

Type: Tanker. MMSI: 240732000.

Date/timePositionNaut miles runAvg speedWind from/ knotsBaromVisibWave heightAir tempDewpointWater temp
2014-Aug-26 20:32N 37°56' E 023°17'8 7.7
2014-Aug-26 19:33N 37°60' E 023°25'5 0.2
2014-Aug-25 22:20N 38°02' E 023°31'2 0.9
2014-Aug-25 20:33N 38°02' E 023°33'  
2014-Aug-23 03:31N 38°02' E 023°32'0 0.0
2014-Aug-23 02:34N 38°02' E 023°32'0 0.0
2014-Aug-23 01:34N 38°02' E 023°32'1 1.4
2014-Aug-23 00:34N 38°02' E 023°30'9 8.8
2014-Aug-22 23:33N 37°57' E 023°21'1110.6
2014-Aug-22 22:33N 37°55' E 023°08'  
2014-Aug-19 18:33N 37°57' E 023°22'8 7.8
2014-Aug-19 17:33N 38°01' E 023°30'4 0.4
2014-Aug-19 07:32N 38°02' E 023°35'0 0.0
2014-Aug-19 06:32N 38°02' E 023°34'0 0.0
2014-Aug-19 05:33N 38°02' E 023°34'0 0.0
2014-Aug-19 04:30N 38°02' E 023°34'0 0.0
2014-Aug-19 03:30N 38°02' E 023°34'0 0.0
2014-Aug-19 02:32N 38°02' E 023°35'0 0.0
2014-Aug-19 01:31N 38°02' E 023°35'0 0.0
2014-Aug-18 23:07N 38°02' E 023°34'0 0.0
2014-Aug-18 22:21N 38°02' E 023°34'0 0.0
2014-Aug-18 21:33N 38°02' E 023°35'0 0.0
2014-Aug-18 20:31N 38°02' E 023°34'2 2.1
2014-Aug-18 19:32N 38°02' E 023°32'0 0.0
2014-Aug-18 07:21N 38°02' E 023°32'0 0.0
2014-Aug-18 06:19N 38°02' E 023°32'1 0.3
2014-Aug-18 03:06N 38°02' E 023°31'7 8.1
2014-Aug-18 02:17N 37°57' E 023°25'710.0
2014-Aug-18 01:33N 37°56' E 023°16'  
Track history (hours):
 
Tides and Currents Weather Stations Pressure Air Temp Water Temp Dewpoint Dewpoint Depression Visibility Wind Speed Wind Dir Waves Ship Positions

Aegean Viii

Last reported at 2014-Aug-26 20:32 UTC. Time now 2014-Aug-27 21:19 UTC.
Position N 37°56' E 023°17'.

Length 12 m; draft 5.2 m.

Type: Tanker. MMSI: 240732000.

Date/timePositionNaut miles runAvg speedWind from/ knotsBaromVisibWave heightAir tempDewpointWater temp
2014-Aug-26 20:32N 37°56' E 023°17'8 7.7
2014-Aug-26 19:33N 37°60' E 023°25'5 0.2
2014-Aug-25 22:20N 38°02' E 023°31'2 0.9
2014-Aug-25 20:33N 38°02' E 023°33'  
2014-Aug-23 03:31N 38°02' E 023°32'0 0.0
2014-Aug-23 02:34N 38°02' E 023°32'0 0.0
2014-Aug-23 01:34N 38°02' E 023°32'1 1.4
2014-Aug-23 00:34N 38°02' E 023°30'9 8.8
2014-Aug-22 23:33N 37°57' E 023°21'1110.6
2014-Aug-22 22:33N 37°55' E 023°08'  
2014-Aug-19 18:33N 37°57' E 023°22'8 7.8
2014-Aug-19 17:33N 38°01' E 023°30'4 0.4
2014-Aug-19 07:32N 38°02' E 023°35'0 0.0
2014-Aug-19 06:32N 38°02' E 023°34'0 0.0
2014-Aug-19 05:33N 38°02' E 023°34'0 0.0
2014-Aug-19 04:30N 38°02' E 023°34'0 0.0
2014-Aug-19 03:30N 38°02' E 023°34'0 0.0
2014-Aug-19 02:32N 38°02' E 023°35'0 0.0
2014-Aug-19 01:31N 38°02' E 023°35'0 0.0
2014-Aug-18 23:07N 38°02' E 023°34'0 0.0
2014-Aug-18 22:21N 38°02' E 023°34'0 0.0
2014-Aug-18 21:33N 38°02' E 023°35'0 0.0
2014-Aug-18 20:31N 38°02' E 023°34'2 2.1
2014-Aug-18 19:32N 38°02' E 023°32'0 0.0
2014-Aug-18 07:21N 38°02' E 023°32'0 0.0
2014-Aug-18 06:19N 38°02' E 023°32'1 0.3
2014-Aug-18 03:06N 38°02' E 023°31'7 8.1
2014-Aug-18 02:17N 37°57' E 023°25'710.0
2014-Aug-18 01:33N 37°56' E 023°16'  

Dump ship's entire track history